Time;durP1;ratioP1;P1;durP2;ratioP2;P2;SDS_P1;SDS_P2;PMS_P1;PMS_P2;Temp;Humidity;BMP_temperature;BMP_pressure;BME280_temperature;BME280_humidity;BME280_pressure;Samples;Min_cycle;Max_cycle;Signal;HPM_P1;HPM_P2
2022/08/18 00:00:16;;;;;;;10.68;9.10;;;;;;;30.49;72.33;97668.81;4816783;29;20115;-71
2022/08/18 00:03:10;;;;;;;10.07;7.78;;;;;;;30.48;73.12;97666.44;4817511;29;20065;-71
2022/08/18 00:06:19;;;;;;;9.55;8.02;;;;;;;30.63;72.22;97673.81;4814917;29;20142;-70
2022/08/18 00:09:17;;;;;;;12.82;8.32;;;;;;;30.54;72.63;97665.75;4807059;29;20050;-68
2022/08/18 00:12:22;;;;;;;11.90;8.40;;;;;;;30.54;72.83;97676.03;4809953;29;20085;-70
2022/08/18 00:15:05;;;;;;;11.50;7.90;;;;;;;30.52;73.50;97679.16;4815152;29;20154;-70
2022/08/18 00:18:00;;;;;;;10.88;8.65;;;;;;;30.30;73.51;97682.72;4830535;29;20109;-70
2022/08/18 00:20:42;;;;;;;12.02;9.35;;;;;;;30.50;72.76;97680.72;4836143;29;20065;-70
2022/08/18 00:23:31;;;;;;;11.70;8.68;;;;;;;30.44;73.20;97683.78;4838227;29;20065;-70
2022/08/18 00:26:20;;;;;;;13.13;8.60;;;;;;;30.40;73.35;97677.41;4837986;29;20058;-70
2022/08/18 00:29:12;;;;;;;11.75;8.10;;;;;;;30.49;73.88;97682.66;4822396;29;20054;-70
2022/08/18 00:32:11;;;;;;;15.30;8.65;;;;;;;30.44;73.60;97677.47;4831811;29;20058;-70
2022/08/18 00:35:00;;;;;;;10.25;8.35;;;;;;;30.42;73.67;97686.13;4820098;29;20066;-70
2022/08/18 00:37:49;;;;;;;13.93;9.57;;;;;;;30.32;73.58;97683.19;4820046;29;20065;-70
2022/08/18 00:40:36;;;;;;;13.00;8.45;;;;;;;30.52;73.07;97689.44;4819558;29;20050;-71
2022/08/18 00:43:39;;;;;;;11.57;8.60;;;;;;;30.48;73.12;97680.25;4819563;29;20062;-70
2022/08/18 00:46:29;;;;;;;11.43;8.75;;;;;;;30.51;73.53;97687.84;4819593;29;20058;-70
2022/08/18 00:49:17;;;;;;;12.32;9.10;;;;;;;30.57;73.06;97695.47;4819382;29;20054;-70
2022/08/18 00:52:00;;;;;;;11.30;9.65;;;;;;;30.57;73.40;97695.47;4820107;29;20061;-70
2022/08/18 00:54:52;;;;;;;11.57;9.07;;;;;;;30.63;73.53;97699.53;4819698;29;20054;-71
2022/08/18 00:57:42;;;;;;;15.07;9.18;;;;;;;30.54;73.62;97698.19;4819998;29;20163;-70
2022/08/18 01:00:32;;;;;;;12.75;8.10;;;;;;;30.63;72.80;97693.19;4819093;29;20115;-71
2022/08/18 01:03:21;;;;;;;12.32;9.02;;;;;;;30.69;74.13;97701.94;4819090;29;20054;-70
2022/08/18 01:06:11;;;;;;;11.40;9.45;;;;;;;30.63;73.55;97704.28;4819259;29;20050;-70
2022/08/18 01:09:07;;;;;;;11.75;9.68;;;;;;;30.81;72.63;97704.53;4809682;29;20149;-71
2022/08/18 01:11:55;;;;;;;15.18;9.63;;;;;;;30.91;72.48;97700.34;4821441;29;20050;-70
2022/08/18 01:15:05;;;;;;;11.68;9.55;;;;;;;31.02;72.36;97702.09;4819509;29;20057;-70
2022/08/18 01:27:34;;;;;;;17.45;10.88;;;;;;;30.67;72.37;97707.06;4811661;29;20829;-70
2022/08/18 01:30:26;;;;;;;20.67;11.90;;;;;;;30.94;71.68;97708.72;4809232;29;20058;-70
2022/08/18 01:33:11;;;;;;;14.95;11.40;;;;;;;31.11;71.19;97709.31;4807849;29;20071;-69
2022/08/18 01:36:11;;;;;;;13.73;10.95;;;;;;;31.35;71.87;97708.84;4801124;29;20119;-69
2022/08/18 01:38:56;;;;;;;16.02;10.98;;;;;;;31.18;72.04;97709.41;4814108;29;20060;-71
2022/08/18 01:41:46;;;;;;;15.10;11.48;;;;;;;31.22;71.91;97715.81;4814781;29;20452;-71
2022/08/18 01:44:34;;;;;;;16.67;12.30;;;;;;;31.21;71.45;97714.22;4818752;29;20107;-70
2022/08/18 01:47:24;;;;;;;17.75;12.45;;;;;;;31.28;71.46;97714.31;4818215;29;20058;-69
2022/08/18 01:50:29;;;;;;;16.73;12.25;;;;;;;31.27;72.01;97709.94;4830164;29;20055;-70
2022/08/18 01:53:17;;;;;;;14.38;11.40;;;;;;;31.48;71.00;97717.75;4800272;29;20079;-70
2022/08/18 01:56:07;;;;;;;15.38;12.05;;;;;;;31.59;70.46;97720.69;4801068;29;20078;-70
2022/08/18 01:58:56;;;;;;;14.60;12.15;;;;;;;31.40;70.66;97722.38;4818747;29;20458;-70
2022/08/18 02:01:46;;;;;;;18.48;12.32;;;;;;;31.58;70.25;97732.94;4818730;29;20604;-70
2022/08/18 02:04:36;;;;;;;14.73;12.10;;;;;;;31.40;69.87;97729.91;4818716;29;20050;-70
2022/08/18 02:07:18;;;;;;;17.52;12.73;;;;;;;31.50;70.13;97731.25;4810842;29;20372;-70
2022/08/18 02:10:22;;;;;;;18.23;11.75;;;;;;;31.78;69.08;97739.13;4810041;29;20054;-70
2022/08/18 02:13:11;;;;;;;19.33;11.75;;;;;;;31.33;69.46;97738.94;4807955;29;20467;-69
2022/08/18 02:16:03;;;;;;;20.92;11.25;;;;;;;31.66;68.78;97744.91;4812252;29;20078;-69
2022/08/18 02:18:52;;;;;;;14.48;11.27;;;;;;;31.96;69.28;97742.88;4804811;29;20066;-70
2022/08/18 02:21:41;;;;;;;15.80;10.90;;;;;;;31.88;67.23;97751.53;4826453;29;20051;-70
2022/08/18 02:24:30;;;;;;;21.98;10.00;;;;;;;32.39;65.50;97748.09;4819853;29;20417;-72
2022/08/18 02:27:14;;;;;;;14.90;8.77;;;;;;;33.28;63.79;97748.00;4831846;29;20070;-71
2022/08/18 02:30:14;;;;;;;12.05;8.85;;;;;;;33.24;62.91;97757.50;4802359;29;20119;-70
2022/08/18 02:32:49;;;;;;;12.02;7.97;;;;;;;33.27;62.44;97762.31;4792829;29;20046;-71
2022/08/18 02:35:38;;;;;;;13.65;7.82;;;;;;;33.52;61.88;97766.00;4812352;29;20133;-71
2022/08/18 02:38:20;;;;;;;9.63;7.05;;;;;;;33.09;61.12;97768.50;4799822;29;20081;-71
2022/08/18 02:41:13;;;;;;;10.55;6.03;;;;;;;33.97;59.66;97768.56;4799995;29;20388;-72
2022/08/18 02:43:55;;;;;;;10.65;8.20;;;;;;;34.40;58.21;97771.50;4783110;29;20054;-71
2022/08/18 02:46:45;;;;;;;13.25;8.27;;;;;;;34.12;59.91;97783.34;4817603;29;20137;-70
2022/08/18 02:49:27;;;;;;;10.85;7.22;;;;;;;33.63;59.60;97788.34;4801245;29;20468;-71
2022/08/18 02:52:16;;;;;;;13.20;7.32;;;;;;;33.97;59.55;97788.06;4816814;29;20053;-71
2022/08/18 02:54:59;;;;;;;14.70;7.75;;;;;;;33.97;59.50;97787.28;4817875;29;20054;-72
2022/08/18 02:57:48;;;;;;;8.77;6.72;;;;;;;33.91;60.75;97790.41;4817485;29;20058;-71
2022/08/18 03:00:31;;;;;;;8.23;6.90;;;;;;;33.69;61.74;97800.69;4819992;29;20053;-71
2022/08/18 03:03:19;;;;;;;13.60;7.22;;;;;;;33.72;61.12;97804.66;4817225;29;20146;-71
2022/08/18 03:06:02;;;;;;;13.73;7.57;;;;;;;33.06;61.86;97815.75;4830674;29;20058;-71
2022/08/18 03:08:58;;;;;;;10.38;8.20;;;;;;;33.61;60.24;97814.91;4835833;29;20511;-71
2022/08/18 03:11:47;;;;;;;11.00;8.52;;;;;;;33.79;61.50;97810.28;4835439;29;20058;-72
2022/08/18 03:14:36;;;;;;;15.90;7.43;;;;;;;33.39;61.36;97814.00;4835040;29;20556;-71
2022/08/18 03:17:17;;;;;;;9.05;7.13;;;;;;;33.49;61.27;97814.06;4827706;29;20173;-71
2022/08/18 03:20:06;;;;;;;10.27;7.95;;;;;;;33.65;61.23;97821.31;4810328;29;20074;-71
2022/08/18 03:22:48;;;;;;;12.98;8.05;;;;;;;33.62;61.06;97817.31;4809904;29;20057;-72
2022/08/18 03:25:39;;;;;;;7.85;6.78;;;;;;;33.76;60.23;97822.16;4809836;29;20077;-72
2022/08/18 03:28:34;;;;;;;8.82;6.88;;;;;;;33.81;60.09;97821.03;4807141;29;20069;-72
2022/08/18 03:31:13;;;;;;;13.80;6.72;;;;;;;33.71;60.59;97826.13;4807470;29;20051;-71
2022/08/18 03:34:13;;;;;;;8.80;6.13;;;;;;;34.03;58.72;97825.47;4812904;29;20320;-71
2022/08/18 03:36:50;;;;;;;12.20;4.85;;;;;;;33.89;58.58;97828.19;4816450;29;20077;-71
2022/08/18 03:39:39;;;;;;;11.20;5.40;;;;;;;34.06;57.69;97830.25;4817212;29;20062;-71
2022/08/18 03:42:22;;;;;;;7.13;5.40;;;;;;;34.08;58.27;97833.44;4816642;29;20054;-71
2022/08/18 03:45:18;;;;;;;9.40;5.03;;;;;;;34.00;58.22;97834.59;4816598;29;20073;-71
2022/08/18 03:47:54;;;;;;;8.18;5.72;;;;;;;34.10;57.91;97822.69;4817078;29;20335;-72
2022/08/18 03:50:45;;;;;;;10.30;4.90;;;;;;;34.13;58.47;97823.94;4816606;29;20142;-72
2022/08/18 03:53:27;;;;;;;6.22;4.95;;;;;;;34.37;57.28;97827.97;4816587;29;20060;-72
2022/08/18 03:56:23;;;;;;;8.93;5.13;;;;;;;33.78;58.70;97830.94;4815343;29;20142;-69
2022/08/18 03:59:13;;;;;;;7.50;4.70;;;;;;;33.89;58.97;97836.56;4806359;29;20065;-71
2022/08/18 04:02:11;;;;;;;12.00;5.13;;;;;;;34.29;56.53;97832.72;4810108;29;20103;-71
2022/08/18 04:04:47;;;;;;;6.55;4.93;;;;;;;34.45;56.81;97835.19;4817365;29;20069;-71
2022/08/18 04:07:35;;;;;;;;;;;;;;;34.64;56.34;97830.41;4800978;29;20073;-71
2022/08/18 04:10:31;;;;;;;7.00;4.60;;;;;;;34.71;57.69;97839.59;4815927;29;20725;-72
2022/08/18 04:13:19;;;;;;;5.68;4.80;;;;;;;35.02;56.47;97844.78;4797349;29;20074;-71
2022/08/18 04:16:08;;;;;;;7.88;5.05;;;;;;;34.99;56.59;97842.81;4797530;29;20062;-70
2022/08/18 04:18:51;;;;;;;11.77;4.88;;;;;;;35.81;55.98;97845.50;4797995;29;20047;-72
2022/08/18 04:21:45;;;;;;;6.20;4.40;;;;;;;36.22;52.77;97852.53;4797304;29;20120;-72
2022/08/18 04:24:28;;;;;;;7.80;4.68;;;;;;;36.25;51.84;97851.75;4797664;29;20058;-71
2022/08/18 04:27:20;;;;;;;12.77;5.28;;;;;;;36.34;52.02;97846.47;4798143;29;20059;-70
2022/08/18 04:30:10;;;;;;;6.05;4.65;;;;;;;36.04;51.75;97842.22;4797676;29;20130;-70
2022/08/18 04:32:58;;;;;;;9.27;4.60;;;;;;;36.45;51.25;97840.84;4822539;29;20050;-70
2022/08/18 04:35:47;;;;;;;6.82;5.30;;;;;;;35.90;52.38;97847.88;4833810;29;20066;-70
2022/08/18 04:38:29;;;;;;;7.95;5.07;;;;;;;36.38;51.92;97838.91;4833820;29;20054;-70
2022/08/18 04:41:22;;;;;;;9.45;4.18;;;;;;;37.10;49.52;97832.78;4832551;29;20427;-71
2022/08/18 04:44:07;;;;;;;10.98;4.40;;;;;;;37.13;51.62;97846.00;4832890;29;20056;-70
2022/08/18 04:47:01;;;;;;;6.85;4.60;;;;;;;37.55;48.55;97843.97;4833130;29;20181;-70
2022/08/18 04:49:37;;;;;;;7.82;4.53;;;;;;;37.49;48.52;97845.66;4833281;29;20518;-71
2022/08/18 04:55:28;;;;;;;10.98;4.53;;;;;;;36.86;50.01;97851.38;4833159;29;20118;-71
2022/08/18 04:58:17;;;;;;;10.63;4.88;;;;;;;36.42;51.41;97862.03;4833436;29;20114;-70
2022/08/18 05:01:08;;;;;;;6.45;4.45;;;;;;;36.56;51.63;97855.53;4833723;29;20414;-71
2022/08/18 05:03:58;;;;;;;7.53;4.45;;;;;;;36.87;51.43;97857.75;4832053;29;20058;-71
2022/08/18 05:06:50;;;;;;;7.63;4.40;;;;;;;36.32;52.62;97862.84;4817359;29;20058;-71
2022/08/18 05:09:40;;;;;;;9.85;4.95;;;;;;;36.85;50.99;97846.97;4818381;29;20046;-71
2022/08/18 05:12:36;;;;;;;6.93;4.20;;;;;;;36.97;50.70;97848.47;4818391;29;20054;-70
2022/08/18 05:15:32;;;;;;;8.32;4.68;;;;;;;36.75;52.26;97848.66;4722821;27;9245568;-70
2022/08/18 05:18:41;;;;;;;9.80;4.90;;;;;;;37.22;48.75;97857.50;5042113;28;20080;-70
2022/08/18 05:21:32;;;;;;;7.45;4.03;;;;;;;37.05;48.78;97858.38;5041987;28;20363;-70
2022/08/18 05:24:18;;;;;;;7.95;3.70;;;;;;;37.45;49.76;97858.84;5041567;28;20061;-69
2022/08/18 05:27:16;;;;;;;11.90;4.32;;;;;;;37.09;49.45;97863.97;5011507;28;20045;-70
2022/08/18 05:29:58;;;;;;;10.52;4.57;;;;;;;37.76;48.18;97856.19;5042840;28;20665;-72
2022/08/18 05:32:51;;;;;;;6.53;4.78;;;;;;;38.04;46.76;97855.03;5042091;28;20116;-71
2022/08/18 05:35:54;;;;;;;7.35;3.63;;;;;;;37.56;48.32;97853.94;5024656;28;20045;-72
2022/08/18 05:39:05;;;;;;;5.32;3.70;;;;;;;37.27;49.64;97847.84;5042232;28;20111;-72
2022/08/18 05:41:57;;;;;;;7.40;3.55;;;;;;;36.55;48.96;97858.75;5042050;28;20055;-72
2022/08/18 05:44:56;;;;;;;4.88;3.90;;;;;;;37.11;51.49;97853.97;5042235;28;20041;-72
2022/08/18 05:47:38;;;;;;;8.20;3.88;;;;;;;37.57;50.70;97852.75;5041974;28;20111;-71
2022/08/18 05:50:27;;;;;;;7.78;4.55;;;;;;;37.40;51.09;97845.34;5042054;28;20053;-73
2022/08/18 05:53:17;;;;;;;7.82;4.70;;;;;;;37.71;51.28;97854.63;5024392;28;20041;-72
2022/08/18 05:59:33;;;;;;;6.28;4.28;;;;;;;37.51;49.07;97846.03;5041226;28;20081;-73
2022/08/18 06:02:22;;;;;;;7.15;4.30;;;;;;;37.07;48.77;97844.81;5021436;28;20046;-71
2022/08/18 06:05:25;;;;;;;6.55;4.45;;;;;;;36.54;51.06;97841.19;5027026;28;20790;-71
2022/08/18 06:08:20;;;;;;;5.53;4.75;;;;;;;36.86;52.41;97845.78;5041124;28;20053;-71
2022/08/18 06:11:08;;;;;;;5.82;5.22;;;;;;;36.29;52.38;97841.34;5041541;28;20049;-71
2022/08/18 06:14:09;;;;;;;8.48;5.03;;;;;;;36.00;51.09;97827.50;5040445;28;20108;-71
2022/08/18 06:17:13;;;;;;;7.97;5.22;;;;;;;35.44;52.12;97832.03;5038458;28;20044;-72
2022/08/18 06:20:10;;;;;;;8.57;5.45;;;;;;;36.06;53.04;97827.88;5041233;28;20053;-71
2022/08/18 06:23:29;;;;;;;8.68;6.85;;;;;;;36.06;53.76;97831.44;5041261;28;20543;-72
2022/08/18 06:26:39;;;;;;;8.25;6.10;;;;;;;35.47;53.77;97826.44;5039825;28;20080;-72
2022/08/18 06:29:39;;;;;;;8.48;6.25;;;;;;;36.09;52.38;97831.84;5047855;28;20067;-71
2022/08/18 06:32:36;;;;;;;10.57;5.65;;;;;;;36.19;52.48;97822.63;5040307;28;20057;-72
2022/08/18 06:35:46;;;;;;;8.95;6.43;;;;;;;36.07;54.56;97818.28;5029101;28;20046;-71
2022/08/18 06:39:07;;;;;;;7.63;6.57;;;;;;;36.64;50.42;97817.94;5029714;28;20302;-72
2022/08/18 06:41:49;;;;;;;8.03;5.40;;;;;;;36.74;52.81;97815.50;5028032;28;20041;-72
2022/08/18 06:44:42;;;;;;;11.10;6.40;;;;;;;36.12;52.43;97809.47;5027861;28;20095;-72
2022/08/18 06:47:47;;;;;;;7.50;6.75;;;;;;;36.93;51.26;97795.38;5027590;28;20054;-71
2022/08/18 06:50:59;;;;;;;12.25;7.07;;;;;;;36.31;53.66;97788.66;5027858;28;20045;-71
2022/08/18 06:54:08;;;;;;;9.52;5.35;;;;;;;36.46;49.65;97786.56;5027859;28;20104;-71
2022/08/18 06:56:52;;;;;;;7.97;5.68;;;;;;;37.22;52.60;97790.34;5027939;28;20140;-72
2022/08/18 06:59:40;;;;;;;9.75;5.65;;;;;;;36.80;49.33;97783.09;5027611;28;20053;-72
2022/08/18 07:03:00;;;;;;;15.57;5.45;;;;;;;36.96;49.21;97788.19;5027349;28;20049;-72
2022/08/18 07:06:12;;;;;;;11.77;6.00;;;;;;;36.93;48.94;97786.19;5019221;28;20425;-72
2022/08/18 07:09:03;;;;;;;8.40;5.07;;;;;;;36.72;49.90;97785.16;5040505;28;20045;-72
2022/08/18 07:12:15;;;;;;;10.98;6.30;;;;;;;37.20;48.95;97775.97;5047280;28;20049;-72
2022/08/18 07:15:01;;;;;;;15.57;5.53;;;;;;;35.86;51.47;97774.50;5046691;28;20064;-72
2022/08/18 07:17:55;;;;;;;7.95;4.93;;;;;;;36.61;51.76;97776.03;5047105;28;20421;-72
2022/08/18 07:21:11;;;;;;;6.70;5.00;;;;;;;37.17;49.03;97771.22;5019215;28;20476;-71
2022/08/18 07:24:34;;;;;;;8.38;4.82;;;;;;;36.92;51.67;97771.44;5009195;28;20060;-72
2022/08/18 07:27:38;;;;;;;6.22;4.20;;;;;;;36.71;48.00;97760.41;5023348;28;20485;-72
2022/08/18 07:30:26;;;;;;;9.98;5.43;;;;;;;36.74;49.80;97765.97;5026906;28;20136;-71
2022/08/18 07:33:21;;;;;;;7.18;6.45;;;;;;;36.76;50.18;97766.34;5022132;28;20075;-71
2022/08/18 07:36:11;;;;;;;6.93;5.60;;;;;;;36.49;51.59;97765.38;5026621;28;20065;-71
2022/08/18 07:39:16;;;;;;;6.22;5.60;;;;;;;36.60;50.69;97768.88;5020267;28;20081;-72
2022/08/18 07:42:33;;;;;;;6.35;5.75;;;;;;;36.05;49.82;97770.41;4983133;28;20497;-72
2022/08/18 07:45:46;;;;;;;8.20;6.70;;;;;;;35.98;50.24;97762.88;5006741;28;20140;-72
2022/08/18 07:48:39;;;;;;;7.78;5.45;;;;;;;36.60;51.25;97754.91;5006395;28;20046;-72
2022/08/18 07:51:49;;;;;;;6.10;5.50;;;;;;;36.75;53.52;97756.41;5007684;28;20050;-71
2022/08/18 07:54:35;;;;;;;9.57;6.53;;;;;;;37.20;51.43;97755.59;5006165;28;20109;-71
2022/08/18 07:57:44;;;;;;;7.13;5.60;;;;;;;36.77;48.83;97753.97;5006020;28;20053;-72
2022/08/18 08:00:24;;;;;;;7.68;5.40;;;;;;;36.36;51.06;97753.88;5015345;28;20057;-71
2022/08/18 08:03:58;;;;;;;7.00;5.20;;;;;;;36.15;49.59;97749.19;5025778;28;20042;-71
2022/08/18 08:07:00;;;;;;;6.70;6.07;;;;;;;36.04;51.54;97747.28;5025835;28;20108;-71
2022/08/18 08:10:30;;;;;;;6.38;5.78;;;;;;;36.40;50.82;97746.25;5025727;28;20610;-71
2022/08/18 08:13:22;;;;;;;12.02;6.65;;;;;;;35.88;53.89;97741.38;5025033;28;20046;-72
2022/08/18 08:17:04;;;;;;;8.48;7.55;;;;;;;36.68;50.64;97731.28;5015386;28;20056;-72
2022/08/18 08:20:12;;;;;;;10.70;7.75;;;;;;;36.33;50.83;97735.16;5005090;28;20418;-73
2022/08/18 08:23:16;;;;;;;7.78;7.07;;;;;;;36.22;48.82;97732.44;5006454;28;20060;-72
2022/08/18 08:26:26;;;;;;;11.00;7.53;;;;;;;36.01;53.47;97724.94;5006629;28;20054;-72
2022/08/18 08:29:28;;;;;;;8.68;6.55;;;;;;;36.65;48.37;97718.16;5005310;28;20116;-72
2022/08/18 08:32:19;;;;;;;7.90;6.55;;;;;;;36.71;47.43;97716.50;5012121;28;20053;-71
2022/08/18 08:35:14;;;;;;;8.30;7.60;;;;;;;36.38;51.00;97721.53;5013999;28;20049;-71
2022/08/18 08:38:39;;;;;;;10.35;9.43;;;;;;;36.21;51.20;97714.06;5005187;28;20046;-71
2022/08/18 08:41:44;;;;;;;10.45;9.35;;;;;;;36.23;53.48;97709.69;5007124;28;20053;-72
2022/08/18 08:44:34;;;;;;;10.82;9.93;;;;;;;36.41;52.87;97703.94;5008036;28;20065;-72
2022/08/18 08:47:48;;;;;;;11.57;10.57;;;;;;;36.18;52.23;97709.31;4986899;28;20054;-72
2022/08/18 08:50:38;;;;;;;11.38;10.25;;;;;;;36.37;50.36;97694.78;4986695;28;20493;-73
2022/08/18 08:53:35;;;;;;;10.93;9.90;;;;;;;36.45;51.66;97693.53;4986400;28;20146;-72
2022/08/18 08:56:20;;;;;;;11.52;10.38;;;;;;;36.66;48.95;97691.00;4986340;28;20049;-72
2022/08/18 08:59:15;;;;;;;11.82;10.60;;;;;;;36.56;53.20;97687.84;4984917;28;20074;-72
2022/08/18 09:02:12;;;;;;;11.57;10.55;;;;;;;35.57;52.52;97679.69;4986711;28;20054;-72
2022/08/18 09:05:40;;;;;;;15.05;11.30;;;;;;;36.36;51.13;97676.44;4992157;28;20060;-72
2022/08/18 09:08:59;;;;;;;11.23;9.95;;;;;;;36.45;52.04;97665.56;4989630;28;20470;-73
2022/08/18 09:11:54;;;;;;;10.80;9.77;;;;;;;36.47;52.74;97656.78;4997561;28;20042;-72
2022/08/18 09:14:45;;;;;;;10.68;9.60;;;;;;;35.88;50.69;97654.81;5005686;28;20049;-73
2022/08/18 09:17:57;;;;;;;12.13;9.35;;;;;;;36.27;51.04;97651.00;5005274;28;20474;-72
2022/08/18 09:20:54;;;;;;;14.23;11.20;;;;;;;36.14;51.81;97644.28;5006474;28;20049;-73
2022/08/18 09:23:50;;;;;;;11.57;9.93;;;;;;;36.07;50.06;97640.31;5025174;28;20053;-73
2022/08/18 09:26:49;;;;;;;11.60;10.52;;;;;;;36.36;52.15;97642.13;5025504;28;20049;-74
2022/08/18 09:29:57;;;;;;;10.82;9.93;;;;;;;35.85;52.11;97630.53;5025036;28;20041;-73
2022/08/18 09:32:56;;;;;;;10.82;9.82;;;;;;;36.16;50.22;97625.91;5015512;28;20129;-72
2022/08/18 09:36:11;;;;;;;10.60;9.57;;;;;;;36.03;51.40;97625.59;5005205;28;20120;-73
2022/08/18 09:42:17;;;;;;;11.05;9.00;;;;;;;35.53;53.25;97619.53;5005710;28;20057;-73
2022/08/18 09:45:16;;;;;;;10.80;9.80;;;;;;;35.98;54.82;97612.09;5004610;28;20049;-72
2022/08/18 09:48:13;;;;;;;11.15;8.85;;;;;;;35.37;51.94;97608.84;5005051;28;20050;-72
2022/08/18 09:51:37;;;;;;;9.02;8.25;;;;;;;35.68;53.05;97607.91;5005480;28;20101;-72
2022/08/18 09:54:32;;;;;;;10.00;8.32;;;;;;;36.03;51.61;97594.88;5005163;28;20136;-73
2022/08/18 09:57:24;;;;;;;10.02;9.13;;;;;;;35.76;52.99;97593.91;5005104;28;20434;-72
2022/08/18 10:00:37;;;;;;;9.85;8.82;;;;;;;35.91;52.14;97597.41;5006005;28;20121;-72
2022/08/18 10:03:23;;;;;;;8.77;8.00;;;;;;;36.14;51.75;97602.38;5008881;28;20137;-73
2022/08/18 10:06:18;;;;;;;9.77;8.88;;;;;;;36.24;51.00;97599.50;5008907;28;20069;-72
2022/08/18 10:09:21;;;;;;;9.70;8.70;;;;;;;36.22;50.00;97596.34;5008688;28;20477;-73
2022/08/18 10:12:50;;;;;;;12.45;9.73;;;;;;;35.47;52.50;97596.84;5008061;28;20045;-73
2022/08/18 10:15:55;;;;;;;9.45;8.60;;;;;;;35.91;52.80;97592.59;5008577;28;20041;-72
2022/08/18 10:19:15;;;;;;;10.80;9.50;;;;;;;35.87;52.47;97587.03;4984407;28;20509;-72
2022/08/18 10:22:46;;;;;;;11.90;9.30;;;;;;;35.10;54.34;97584.25;5027393;28;20057;-72
2022/08/18 10:25:41;;;;;;;9.45;8.32;;;;;;;35.28;53.78;97582.22;5028428;28;20045;-72
2022/08/18 10:28:56;;;;;;;9.77;8.02;;;;;;;35.66;52.72;97576.78;5028113;28;20141;-72
2022/08/18 10:31:55;;;;;;;8.23;7.53;;;;;;;35.70;51.38;97581.59;5024218;28;20144;-72
2022/08/18 10:34:49;;;;;;;10.43;8.13;;;;;;;35.93;53.93;97576.22;5008502;28;20041;-73
2022/08/18 10:37:38;;;;;;;8.32;7.63;;;;;;;36.17;52.61;97573.63;5007973;28;20045;-72
2022/08/18 10:40:29;;;;;;;7.03;6.43;;;;;;;35.84;51.79;97567.53;5008233;28;20050;-74
2022/08/18 10:43:46;;;;;;;7.72;5.97;;;;;;;35.75;50.92;97569.97;4990663;28;20450;-72
2022/08/18 10:46:45;;;;;;;13.27;7.20;;;;;;;36.13;50.80;97565.25;4968573;28;20053;-71
2022/08/18 10:49:32;;;;;;;7.82;6.72;;;;;;;36.30;50.59;97557.94;5008086;28;20072;-71
2022/08/18 10:53:08;;;;;;;8.00;6.38;;;;;;;35.95;50.50;97554.25;5009241;28;20050;-73
2022/08/18 10:56:39;;;;;;;7.15;5.97;;;;;;;35.95;51.00;97557.06;4909315;29;20547;-72
2022/08/18 10:59:53;;;;;;;8.38;6.82;;;;;;;36.23;51.71;97552.44;4915996;28;20052;-73
2022/08/18 11:03:00;;;;;;;12.10;8.87;;;;;;;35.66;52.54;97543.31;4990580;28;20508;-74
2022/08/18 11:06:14;;;;;;;8.70;7.88;;;;;;;36.29;51.58;97550.78;5007692;28;20628;-73
2022/08/18 11:09:03;;;;;;;8.32;7.63;;;;;;;36.18;51.52;97547.31;5007774;28;20070;-73
2022/08/18 11:11:49;;;;;;;8.82;7.93;;;;;;;35.99;51.75;97546.66;5019624;28;20053;-73
2022/08/18 11:14:58;;;;;;;9.45;8.45;;;;;;;35.96;52.34;97541.09;5026989;28;20049;-73
2022/08/18 11:18:13;;;;;;;8.60;7.90;;;;;;;35.85;52.47;97544.00;5007814;28;20414;-73
2022/08/18 11:21:41;;;;;;;7.80;7.10;;;;;;;36.23;53.23;97536.50;4993243;28;20057;-72
2022/08/18 11:24:35;;;;;;;8.98;7.00;;;;;;;35.71;51.82;97532.94;5007370;28;20049;-73
2022/08/18 11:27:29;;;;;;;7.95;7.15;;;;;;;35.94;52.54;97523.97;5006461;28;20478;-73
2022/08/18 11:30:20;;;;;;;9.00;6.45;;;;;;;35.54;51.46;97529.84;5022467;28;20549;-72
2022/08/18 11:33:16;;;;;;;6.95;6.35;;;;;;;35.88;51.79;97520.81;5005388;28;20476;-72
2022/08/18 11:36:05;;;;;;;10.90;6.88;;;;;;;35.99;52.24;97515.94;5026299;28;20119;-72
2022/08/18 11:38:56;;;;;;;6.57;5.97;;;;;;;35.90;52.14;97507.22;5026669;28;20128;-73
2022/08/18 11:41:40;;;;;;;6.65;5.95;;;;;;;35.69;52.48;97513.78;5027068;28;20128;-73
2022/08/18 11:44:48;;;;;;;7.65;5.55;;;;;;;35.84;51.68;97509.69;5026808;28;20127;-73
2022/08/18 11:47:31;;;;;;;5.97;5.47;;;;;;;35.85;53.06;97502.13;5026790;28;20056;-75
2022/08/18 11:50:27;;;;;;;5.43;5.00;;;;;;;35.83;50.92;97510.13;5026529;28;20054;-72
2022/08/18 11:53:27;;;;;;;7.43;5.53;;;;;;;35.80;51.23;97511.72;5007050;28;20049;-72
2022/08/18 11:56:27;;;;;;;9.15;5.20;;;;;;;35.80;50.75;97520.09;5007142;28;20042;-73
2022/08/18 11:59:35;;;;;;;10.32;5.30;;;;;;;35.85;51.47;97510.50;5006463;28;20557;-72
2022/08/18 12:02:44;;;;;;;6.00;5.25;;;;;;;35.95;51.84;97508.81;5006460;28;20045;-73
2022/08/18 12:05:33;;;;;;;7.75;5.80;;;;;;;35.71;51.20;97505.03;5014647;28;20045;-74
2022/08/18 12:08:37;;;;;;;6.05;5.55;;;;;;;35.87;52.16;97508.06;5025862;28;20049;-74
2022/08/18 12:11:54;;;;;;;6.15;5.55;;;;;;;35.80;52.87;97508.91;5025067;28;20681;-74
2022/08/18 12:15:03;;;;;;;7.30;6.45;;;;;;;35.61;53.99;97507.44;5024047;28;20052;-74
2022/08/18 12:18:02;;;;;;;6.78;6.18;;;;;;;35.66;55.46;97503.44;5006415;28;20065;-74
2022/08/18 12:20:44;;;;;;;8.80;6.35;;;;;;;35.58;54.43;97497.13;5014461;28;20575;-73
2022/08/18 12:23:42;;;;;;;9.43;5.80;;;;;;;35.61;53.70;97499.06;5024208;28;20556;-73
2022/08/18 12:26:39;;;;;;;6.40;5.90;;;;;;;35.64;54.15;97492.69;5025610;28;20057;-74
2022/08/18 12:29:38;;;;;;;6.63;5.80;;;;;;;35.67;54.89;97493.84;5025842;28;20141;-73
2022/08/18 12:32:29;;;;;;;6.68;6.03;;;;;;;35.75;54.91;97491.81;5025534;28;20064;-74
2022/08/18 12:35:39;;;;;;;6.03;5.43;;;;;;;35.62;53.24;97492.31;5050703;28;20127;-74
2022/08/18 12:38:35;;;;;;;6.63;5.72;;;;;;;35.75;52.93;97494.63;5051297;28;20574;-74
2022/08/18 12:41:16;;;;;;;12.50;6.07;;;;;;;35.63;54.88;97493.88;5050713;28;20053;-74
2022/08/18 12:44:12;;;;;;;11.07;6.85;;;;;;;35.46;57.02;97490.03;5046233;28;20052;-74
2022/08/18 12:46:47;;;;;;;7.32;6.35;;;;;;;35.43;54.67;97490.06;5044524;28;20053;-71
2022/08/18 12:49:43;;;;;;;9.77;6.57;;;;;;;35.41;57.45;97484.13;5045613;28;20044;-72
2022/08/18 12:52:40;;;;;;;6.70;6.03;;;;;;;35.23;56.54;97487.00;5045800;28;20848;-69
2022/08/18 12:55:17;;;;;;;7.13;6.25;;;;;;;35.26;57.87;97484.19;5031168;28;20045;-70
2022/08/18 12:58:06;;;;;;;9.30;6.82;;;;;;;35.26;56.03;97489.00;5046582;28;20060;-70
2022/08/18 13:00:50;;;;;;;9.65;7.00;;;;;;;35.13;56.15;97479.50;5044222;28;20300;-70
2022/08/18 13:03:39;;;;;;;7.40;6.60;;;;;;;35.00;55.54;97482.72;5038232;28;20057;-71
2022/08/18 13:06:22;;;;;;;7.95;6.45;;;;;;;35.06;56.02;97483.09;5035916;28;20372;-72
2022/08/18 13:09:20;;;;;;;9.20;6.88;;;;;;;34.84;57.19;97480.44;5036344;28;20056;-71
2022/08/18 13:12:17;;;;;;;10.55;6.30;;;;;;;34.96;56.40;97475.59;5045051;28;20119;-72
2022/08/18 13:15:13;;;;;;;11.30;6.38;;;;;;;34.92;56.45;97472.06;5045499;28;20134;-71
2022/08/18 13:17:54;;;;;;;11.18;7.15;;;;;;;34.89;56.61;97480.03;5044299;28;20049;-73
2022/08/18 13:20:50;;;;;;;7.10;6.40;;;;;;;34.78;56.97;97482.06;5044968;28;20045;-72
2022/08/18 13:23:26;;;;;;;6.88;6.28;;;;;;;34.57;55.99;97480.16;5042228;28;20049;-70
2022/08/18 13:26:38;;;;;;;16.95;6.95;;;;;;;34.52;57.18;97484.13;4863220;28;10000420;-70
2022/08/18 13:29:17;;;;;;;9.80;7.10;;;;;;;34.63;57.64;97484.09;5041953;28;20291;-69
2022/08/18 13:32:08;;;;;;;10.20;7.78;;;;;;;34.48;57.66;97483.34;5042385;28;20052;-70
2022/08/18 13:35:00;;;;;;;12.43;7.97;;;;;;;34.46;58.14;97482.97;5041352;28;20488;-71
2022/08/18 13:37:54;;;;;;;10.57;7.15;;;;;;;34.59;58.51;97485.31;5043483;28;20052;-72
2022/08/18 13:40:35;;;;;;;16.35;8.02;;;;;;;34.45;58.11;97488.94;5044456;28;20500;-70
2022/08/18 13:43:38;;;;;;;12.20;7.70;;;;;;;34.52;58.87;97489.69;5045759;28;20164;-70
2022/08/18 13:46:41;;;;;;;15.32;7.65;;;;;;;34.30;59.60;97491.00;5053963;28;20059;-71
2022/08/18 13:49:20;;;;;;;9.88;7.63;;;;;;;34.16;59.72;97491.00;5058743;28;20119;-72
2022/08/18 13:52:13;;;;;;;9.10;7.57;;;;;;;34.21;60.10;97496.19;5068192;28;20072;-71
2022/08/18 13:55:20;;;;;;;15.43;7.95;;;;;;;34.29;60.00;97492.97;5068790;28;20074;-71
2022/08/18 13:58:09;;;;;;;12.20;7.90;;;;;;;34.01;59.39;97493.78;5068436;28;20102;-71
2022/08/18 14:01:10;;;;;;;9.50;7.93;;;;;;;34.23;59.69;97494.56;5051368;28;20039;-72